Aérodrome :
LOGIN :

S'inscrire | Disclaimer

   EN    FR    IT 

 










Légende :    VFR   VFR Marginal   IFR   IFR Intensif   IFR Très Intensif
Visi : 
Plafond : 
>= 8 km
>= 3000ft
5 à 8 km
1000 à 3000 ft
1500m à 5 km
500 à 1000 ft
800 à 1500m
200 à 500 ft
< 800m
< 200 ft
Symboles :   Orages  Brouillard  Fortes neiges  Fortes précipitations  Vent > 20 kt
SIGMETs :   Divers  Orages  Givrage  Turbulence  Onde Orograph.  Cendres Volcan.






- Altitude de l'aérodrome : 741 ft
- Code IATA : JKG


ESGJ - Jönköping

DERNIER METAR :
  • 271720Z AUTO 27003KT 0200 R01/0700N R19/1200U FZFG OVC001/// M01/M01 Q1022

METARs EXPIRÉS :
  • 271650Z AUTO 29002KT 0250 R01/0900D R19/1000U FZFG OVC001/// M01/M01 Q1022
  • 271620Z AUTO 30003KT 0200 R01/0800N R19/0750N FZFG OVC001/// M00/M00 Q1022
  • 271550Z AUTO 30004KT 0200 R01/0700N R19/0800N FZFG OVC001/// M00/M00 Q1022
  • 271520Z AUTO 31003KT 0200 R01/0650N R19/0900N FZFG OVC001/// M00/M00 Q1021
  • 271450Z AUTO 31003KT 0200 R01/0600N R19/0900N FZFG OVC001/// M00/M00 Q1021

Prévision TAF périmée.



MET'MAP, la Météo Aéronautique d'un coup d'oeil ! - Copyright ORBIFLY Décembre 2007 - Disclaimer

ORBIFLY MET'MAP TEAM :

Programmation & Développement : Alexandra Zaïnal
Sur une idée originale de : Baudouin d'Aumeries
Assistance à la programmation : Marc-Olivier Méhu
Soutien technique & logistique : Manuel Goepfert

Contact : metmap@orbifly.com




SOURCES & CREDITS :

   NOAA